Jamestown, ND

9:46 AM CDT on September 20, 2014 (GMT -0500)
Leapaldt Addition | Change Station
CLOSE
Current Station
Personal Weather Station
Location: Jamestown, ND
Elevation: 1486 ft
Nearby Weather Stations

Elev 1486 ft 46.93 °N, 98.69 °W | Updated 1 minute ago

Clear
Clear
63.0 °F
Feels Like 63.0 °F
N
4.2
Wind Variable Wind from WSW

Today
High -- | Low -- °F
--% Chance of Precip.
Yesterday
High -- | Low -- °F
Precip. -- in
7:19 AM 7:36 PM
Waning Crescent, 12% visible
Pressure 29.83 in
Visibility 10.0 miles
Clouds Clear
Dew Point 59 °F
Humidity 87%
Rainfall 0.00 in
Snow Depth Not available.
UV 1 out of 12
Pollen 3.50 out of 12
Air Quality Not available.
Flu Activity Not available.
METAR KJMS 201356Z AUTO 26005KT 10SM CLR 14/12 A2983 RMK AO2 SLP101 T01390122

More Conditions Fewer Conditions

Pressure 29.83 in
Visibility 10.0 miles
Clouds Clear
Dew Point 59 °F
Humidity 87%
Rainfall 0.00 in
Snow Depth Not available.
UV 1 out of 12
Pollen 3.50 out of 12
Air Quality Not available.
Flu Activity Not available.
METAR KJMS 201356Z AUTO 26005KT 10SM CLR 14/12 A2983 RMK AO2 SLP101 T01390122

More Conditions Fewer Conditions

10-Day Weather Forecast

Almanac

Astronomy

Sep. 20, 2014 Rise Set
Actual Time 7:19 AM CDT 7:36 PM CDT
Civil Twilight 6:48 AM CDT 8:06 PM CDT
Nautical Twilight 6:12 AM CDT 8:42 PM CDT
Astronomical Twilight 5:35 AM CDT 9:19 PM CDT
Moon 3:49 AM CDT 5:49 PM CDT
Length of Visible Light 13h 18m
Length of Day
12h 17m
Tomorrow will be 3m 19s shorter.
Waning Crescent, 12% of the Moon is Illuminated
Today
Waning Crescent
Sep 24
New
Oct 1
First Quarter
Oct 8
Full
Oct 15
Last Quarter

Today's Extremes

State Highs State Lows

Community

WunderPhotos

Upload Photos

1,754,872 photos uploaded!

WunderBlogs® & News

Nearby

Snow Depth

Station Depth Elevation
No new snow has been reported.

Earthquake Activity

City Distance Mag. Time & Date
No recent earthquake activity has been reported nearby.
Minimum magnitude displayed is 2.5.

Coastal Water Temperatures

Place Temperature
No Stations Reporting

Nearby Weather Stations